AirNav   Phillips 66 Aviation Fuel
 
 941 users online  

2NY9 Kayutah Lake Airport
Alpine, New York, USA

GOING TO ALPINE?


FAA INFORMATION EFFECTIVE 20 JULY 2017

Location

FAA Identifier: 2NY9
Lat/Long: 42-22-12.2640N / 076-43-20.8230W
42-22.204400N / 076-43.347050W
42.3700733 / -76.7224508
(estimated)
Elevation: 1385 ft. / 422 m (estimated)
Variation: 11W (1985)
From city: 3 miles N of ALPINE, NY
Time zone: UTC -4 (UTC -5 during Standard Time)
Zip code: 14805

Airport Operations

Airport use: Private use. Permission required prior to landing
Activation date: 05/1974
Control tower: no
ARTCC: NEW YORK CENTER
FSS: BUFFALO FLIGHT SERVICE STATION
Attendance: MAY-OCT 0800-2000
Wind indicator: yes
Segmented circle: no

Airport Communications

WX AWOS-3PT at ITH (14 nm NE): 125.175 (607-257-2390)
WX ASOS at ELM (15 nm SW): PHONE 607-796-0065

Nearby radio navigation aids

VOR radial/distance  VOR name  Freq  Var
ITHr247/13.8ITHACA VOR/DME111.8010W
ULWr051/21.3ELMIRA VOR/DME109.6512W
CFBr306/29.0BINGHAMTON VOR/DME112.2010W

 
NDB name  Hdg/Dist  Freq  Var  ID
ALPINE025/8.124512WALP .- .-.. .--.
PENN YAN150/22.126012WPYA .--. -.-- .-

Airport Services

Airframe service: NONE
Powerplant service: NONE

Runway Information

Runway 8/26

Dimensions: 2400 x 70 ft. / 732 x 21 m
08/26 300' OVERRUN ON EAST END.
Surface: turf
RUNWAY 8  RUNWAY 26
Traffic pattern: leftright
Obstructions: nonetrees, 750 ft. from runway

Runway 4W/22W

Dimensions: 5000 x 150 ft. / 1524 x 46 m
Surface: water
RUNWAY 4W  RUNWAY 22W
Traffic pattern: leftleft

Airport Ownership and Management from official FAA records

Ownership: Privately-owned
Owner: JAMES W. ALLEN
2512 LORI LANE NORTH
WILIMGTON, DE 19810
Phone (302) 478-0310
Manager: LAKE GROVE PARK LLC
2619 COUNTY RT. 6
ALPINE, NY 14805
Phone 607-594-4790

Airport Operational Statistics

Aircraft based on the field: 1
Single engine airplanes: 1
    

Instrument Procedures

There are no published instrument procedures at 2NY9.

Some nearby airports with instrument procedures:

KITH - Ithaca Tompkins Regional Airport (14 nm NE)
KELM - Elmira/Corning Regional Airport (15 nm SW)
KPEO - Penn Yan Airport (22 nm NW)
N03 - Cortland County Airport-Chase Field (26 nm NE)
0G7 - Finger Lakes Regional Airport (31 nm N)
 
Loc | Ops | Rwys | IFR | FBO | Links
Com | Nav | Svcs | Stats | Notes


 
Area around 2NY9 (Kayutah Lake Airport)
 
Road maps at: MapQuest Bing Google
 
Aerial photo
No photo
 
Sectional chart

 
Airport distance calculator
Flying to Kayutah Lake Airport? Find the distance to fly.

From to 2NY9

Sunrise and sunset
Times for 23-Jul-2017
 Local
(UTC-4)
 Zulu
(UTC)
Morning civil twilight05:1909:19
Sunrise05:5109:51
Sunset20:3500:35
Evening civil twilight21:0801:08

Current date and time
Zulu (UTC)  24-Jul-2017 00:27:23
Local (UTC-4)  23-Jul-2017 20:27:23
 
METAR
KITH 
13nm NE 
232356Z 34013KT 9SM VCTS -RA FEW021 SCT032 BKN047 21/19 A2975 RMK AO2 WSHFT 2334 LTG DSNT E AND SE TSE49B53 SLP068 P0046 60046 T02060189 10272 20200 58010
KELM 
15nm SW 
240012Z AUTO 13003KT 10SM FEW023 SCT044 BKN100 22/18 A2975 RMK AO2 LTG DSNT NE AND E T02220183
KPEO 
22nm NW 
240002Z AUTO 00000KT 10SM SCT010 21/19 A2976 RMK AO2 T02060189
KN03 
26nm NE 
240015Z AUTO 16006KT 7SM +RA SCT030 BKN040 OVC048 21/20 A2977 RMK AO2
TAF
KITH 
13nm NE 
232200Z 2322/2418 13007KT P6SM -SHRA BKN050 TEMPO 2322/2402 3SM TSRA BR OVC022CB FM240400 14008KT 5SM -SHRA BR OVC020 FM240700 17008KT 4SM -SHRA BR OVC022 FM241500 22006KT P6SM BKN029
KELM 
15nm SW 
232042Z 2321/2418 VRB06KT P6SM -SHRA BKN050 TEMPO 2400/2404 3SM TSRA BR OVC025CB FM240400 VRB05KT 5SM -SHRA BR OVC008 FM241600 27008KT P6SM -SHRA BKN012
NOTAMs
Click for the latest NOTAMs
NOTAMs are issued by the DoD/FAA and will open in a separate window not controlled by AirNav.

 

 
 

Would you like to see your business listed on this page?

 If your business provides an interesting product or service to pilots, flight crews, aircraft, or users of the Kayutah Lake Airport, you should consider listing it here.  To start the listing process, click on the button below
 
Add a business
 

Other Pages about Kayutah Lake Airport

Update a link
 
Copyright © AirNav, LLC. All rights reserved. Privacy Policy  Contact